sensor_id;sensor_type;location;lat;lon;timestamp;P1;durP1;ratioP1;P2;durP2;ratioP2
17650;SDS011;26663;59.302;18.082;2022-12-24T00:01:40;1.10;;;1.10;;
17650;SDS011;26663;59.302;18.082;2022-12-24T00:04:45;1.53;;;1.40;;
17650;SDS011;26663;59.302;18.082;2022-12-24T00:07:50;2.53;;;1.33;;
17650;SDS011;26663;59.302;18.082;2022-12-24T00:10:55;2.60;;;1.70;;
17650;SDS011;26663;59.302;18.082;2022-12-24T00:14:02;1.60;;;1.50;;
17650;SDS011;26663;59.302;18.082;2022-12-24T00:17:08;1.47;;;1.47;;
17650;SDS011;26663;59.302;18.082;2022-12-24T00:20:14;1.40;;;1.40;;
17650;SDS011;26663;59.302;18.082;2022-12-24T00:23:19;2.43;;;1.40;;
17650;SDS011;26663;59.302;18.082;2022-12-24T00:26:25;1.27;;;1.27;;
17650;SDS011;26663;59.302;18.082;2022-12-24T00:29:32;1.60;;;1.50;;
17650;SDS011;26663;59.302;18.082;2022-12-24T00:32:37;1.40;;;1.40;;
17650;SDS011;26663;59.302;18.082;2022-12-24T00:35:43;1.20;;;1.20;;
17650;SDS011;26663;59.302;18.082;2022-12-24T00:38:48;1.30;;;1.30;;
17650;SDS011;26663;59.302;18.082;2022-12-24T00:41:54;1.33;;;1.33;;
17650;SDS011;26663;59.302;18.082;2022-12-24T00:45:01;1.30;;;1.30;;
17650;SDS011;26663;59.302;18.082;2022-12-24T00:48:08;1.30;;;1.30;;
17650;SDS011;26663;59.302;18.082;2022-12-24T00:51:13;1.50;;;1.40;;
17650;SDS011;26663;59.302;18.082;2022-12-24T00:54:19;3.97;;;1.60;;
17650;SDS011;26663;59.302;18.082;2022-12-24T00:57:24;1.10;;;1.10;;
17650;SDS011;26663;59.302;18.082;2022-12-24T01:00:31;2.20;;;1.30;;
17650;SDS011;26663;59.302;18.082;2022-12-24T01:03:37;1.63;;;1.53;;
17650;SDS011;26663;59.302;18.082;2022-12-24T01:06:42;1.80;;;1.43;;
17650;SDS011;26663;59.302;18.082;2022-12-24T01:09:47;1.30;;;1.30;;
17650;SDS011;26663;59.302;18.082;2022-12-24T01:12:52;1.70;;;1.60;;
17650;SDS011;26663;59.302;18.082;2022-12-24T01:15:59;1.57;;;1.40;;
17650;SDS011;26663;59.302;18.082;2022-12-24T01:19:04;1.30;;;1.30;;
17650;SDS011;26663;59.302;18.082;2022-12-24T01:22:09;1.30;;;1.20;;
17650;SDS011;26663;59.302;18.082;2022-12-24T01:25:15;2.00;;;1.60;;
17650;SDS011;26663;59.302;18.082;2022-12-24T01:28:20;1.43;;;1.43;;
17650;SDS011;26663;59.302;18.082;2022-12-24T01:31:27;1.50;;;1.40;;
17650;SDS011;26663;59.302;18.082;2022-12-24T01:34:32;1.20;;;1.20;;
17650;SDS011;26663;59.302;18.082;2022-12-24T01:37:38;1.50;;;1.50;;
17650;SDS011;26663;59.302;18.082;2022-12-24T01:40:46;4.50;;;1.37;;
17650;SDS011;26663;59.302;18.082;2022-12-24T01:44:23;1.43;;;1.43;;
17650;SDS011;26663;59.302;18.082;2022-12-24T01:47:39;1.40;;;1.40;;
17650;SDS011;26663;59.302;18.082;2022-12-24T01:50:44;1.50;;;1.50;;
17650;SDS011;26663;59.302;18.082;2022-12-24T01:53:50;1.20;;;1.20;;
17650;SDS011;26663;59.302;18.082;2022-12-24T01:56:59;1.50;;;1.47;;
17650;SDS011;26663;59.302;18.082;2022-12-24T02:00:10;1.20;;;1.20;;
17650;SDS011;26663;59.302;18.082;2022-12-24T02:03:18;1.30;;;1.30;;
17650;SDS011;26663;59.302;18.082;2022-12-24T02:06:24;1.30;;;1.30;;
17650;SDS011;26663;59.302;18.082;2022-12-24T02:09:29;1.50;;;1.40;;
17650;SDS011;26663;59.302;18.082;2022-12-24T02:12:36;1.20;;;1.20;;
17650;SDS011;26663;59.302;18.082;2022-12-24T02:15:45;1.40;;;1.30;;
17650;SDS011;26663;59.302;18.082;2022-12-24T02:18:59;2.00;;;1.20;;
17650;SDS011;26663;59.302;18.082;2022-12-24T02:22:13;1.23;;;1.20;;
17650;SDS011;26663;59.302;18.082;2022-12-24T02:25:24;2.50;;;1.23;;
17650;SDS011;26663;59.302;18.082;2022-12-24T02:28:58;1.37;;;1.37;;
17650;SDS011;26663;59.302;18.082;2022-12-24T02:32:22;1.20;;;1.20;;
17650;SDS011;26663;59.302;18.082;2022-12-24T02:35:31;1.40;;;1.40;;
17650;SDS011;26663;59.302;18.082;2022-12-24T02:38:41;1.53;;;1.50;;
17650;SDS011;26663;59.302;18.082;2022-12-24T02:41:50;1.50;;;1.50;;
17650;SDS011;26663;59.302;18.082;2022-12-24T02:45:11;1.40;;;1.40;;
17650;SDS011;26663;59.302;18.082;2022-12-24T02:48:19;1.47;;;1.23;;
17650;SDS011;26663;59.302;18.082;2022-12-24T02:51:25;1.23;;;1.23;;
17650;SDS011;26663;59.302;18.082;2022-12-24T02:54:31;2.00;;;1.40;;
17650;SDS011;26663;59.302;18.082;2022-12-24T02:57:47;1.20;;;1.20;;
17650;SDS011;26663;59.302;18.082;2022-12-24T03:01:00;1.10;;;1.10;;
17650;SDS011;26663;59.302;18.082;2022-12-24T03:04:22;1.40;;;1.40;;
17650;SDS011;26663;59.302;18.082;2022-12-24T03:07:42;1.27;;;1.27;;
17650;SDS011;26663;59.302;18.082;2022-12-24T03:10:51;1.30;;;1.30;;
17650;SDS011;26663;59.302;18.082;2022-12-24T03:13:58;2.50;;;1.50;;
17650;SDS011;26663;59.302;18.082;2022-12-24T03:17:04;2.33;;;1.47;;
17650;SDS011;26663;59.302;18.082;2022-12-24T03:20:13;1.40;;;1.37;;
17650;SDS011;26663;59.302;18.082;2022-12-24T03:23:21;1.57;;;1.50;;
17650;SDS011;26663;59.302;18.082;2022-12-24T03:26:27;1.40;;;1.37;;
17650;SDS011;26663;59.302;18.082;2022-12-24T03:29:33;1.80;;;1.70;;
17650;SDS011;26663;59.302;18.082;2022-12-24T03:32:39;1.50;;;1.40;;
17650;SDS011;26663;59.302;18.082;2022-12-24T03:35:46;2.80;;;1.40;;
17650;SDS011;26663;59.302;18.082;2022-12-24T03:38:51;4.30;;;1.47;;
17650;SDS011;26663;59.302;18.082;2022-12-24T03:41:56;1.57;;;1.47;;
17650;SDS011;26663;59.302;18.082;2022-12-24T03:45:02;1.40;;;1.40;;
17650;SDS011;26663;59.302;18.082;2022-12-24T03:48:10;1.70;;;1.60;;
17650;SDS011;26663;59.302;18.082;2022-12-24T03:51:17;1.40;;;1.40;;
17650;SDS011;26663;59.302;18.082;2022-12-24T03:54:23;1.20;;;1.20;;
17650;SDS011;26663;59.302;18.082;2022-12-24T03:57:29;1.20;;;1.20;;
17650;SDS011;26663;59.302;18.082;2022-12-24T04:00:34;1.53;;;1.53;;
17650;SDS011;26663;59.302;18.082;2022-12-24T04:03:39;1.33;;;1.33;;
17650;SDS011;26663;59.302;18.082;2022-12-24T04:06:46;1.40;;;1.40;;
17650;SDS011;26663;59.302;18.082;2022-12-24T04:09:51;1.47;;;1.47;;
17650;SDS011;26663;59.302;18.082;2022-12-24T04:12:56;1.57;;;1.57;;
17650;SDS011;26663;59.302;18.082;2022-12-24T04:16:03;1.40;;;1.40;;
17650;SDS011;26663;59.302;18.082;2022-12-24T04:19:09;1.30;;;1.30;;
17650;SDS011;26663;59.302;18.082;2022-12-24T04:22:16;2.80;;;1.30;;
17650;SDS011;26663;59.302;18.082;2022-12-24T04:25:21;1.67;;;1.57;;
17650;SDS011;26663;59.302;18.082;2022-12-24T04:28:27;1.93;;;1.43;;
17650;SDS011;26663;59.302;18.082;2022-12-24T04:31:32;1.40;;;1.40;;
17650;SDS011;26663;59.302;18.082;2022-12-24T04:34:37;1.53;;;1.50;;
17650;SDS011;26663;59.302;18.082;2022-12-24T04:37:44;1.50;;;1.50;;
17650;SDS011;26663;59.302;18.082;2022-12-24T04:40:56;1.50;;;1.40;;
17650;SDS011;26663;59.302;18.082;2022-12-24T04:44:02;1.60;;;1.50;;
17650;SDS011;26663;59.302;18.082;2022-12-24T04:47:09;1.30;;;1.30;;
17650;SDS011;26663;59.302;18.082;2022-12-24T04:50:14;1.47;;;1.47;;
17650;SDS011;26663;59.302;18.082;2022-12-24T04:53:21;1.50;;;1.50;;
17650;SDS011;26663;59.302;18.082;2022-12-24T04:56:27;1.43;;;1.43;;
17650;SDS011;26663;59.302;18.082;2022-12-24T04:59:34;1.10;;;1.10;;
17650;SDS011;26663;59.302;18.082;2022-12-24T05:02:39;1.37;;;1.33;;
17650;SDS011;26663;59.302;18.082;2022-12-24T05:05:44;1.60;;;1.50;;
17650;SDS011;26663;59.302;18.082;2022-12-24T05:08:53;1.27;;;1.27;;
17650;SDS011;26663;59.302;18.082;2022-12-24T05:11:59;1.30;;;1.30;;
17650;SDS011;26663;59.302;18.082;2022-12-24T05:15:05;1.83;;;1.50;;
17650;SDS011;26663;59.302;18.082;2022-12-24T05:18:11;1.20;;;1.20;;
17650;SDS011;26663;59.302;18.082;2022-12-24T05:21:16;1.30;;;1.30;;
17650;SDS011;26663;59.302;18.082;2022-12-24T05:24:24;2.53;;;1.23;;
17650;SDS011;26663;59.302;18.082;2022-12-24T05:27:47;2.17;;;1.50;;
17650;SDS011;26663;59.302;18.082;2022-12-24T05:30:53;1.60;;;1.50;;
17650;SDS011;26663;59.302;18.082;2022-12-24T05:33:58;1.40;;;1.40;;
17650;SDS011;26663;59.302;18.082;2022-12-24T05:37:04;2.83;;;1.40;;
17650;SDS011;26663;59.302;18.082;2022-12-24T05:40:12;1.30;;;1.30;;
17650;SDS011;26663;59.302;18.082;2022-12-24T05:43:18;1.30;;;1.30;;
17650;SDS011;26663;59.302;18.082;2022-12-24T05:46:23;1.43;;;1.43;;
17650;SDS011;26663;59.302;18.082;2022-12-24T05:49:29;1.20;;;1.20;;
17650;SDS011;26663;59.302;18.082;2022-12-24T05:52:34;1.30;;;1.27;;
17650;SDS011;26663;59.302;18.082;2022-12-24T05:55:41;1.40;;;1.40;;
17650;SDS011;26663;59.302;18.082;2022-12-24T05:58:46;1.30;;;1.30;;
17650;SDS011;26663;59.302;18.082;2022-12-24T06:01:52;1.30;;;1.30;;
17650;SDS011;26663;59.302;18.082;2022-12-24T06:04:57;1.30;;;1.30;;
17650;SDS011;26663;59.302;18.082;2022-12-24T06:08:03;1.30;;;1.30;;
17650;SDS011;26663;59.302;18.082;2022-12-24T06:11:10;1.43;;;1.40;;
17650;SDS011;26663;59.302;18.082;2022-12-24T06:14:16;1.53;;;1.53;;
17650;SDS011;26663;59.302;18.082;2022-12-24T06:17:22;1.20;;;1.20;;
17650;SDS011;26663;59.302;18.082;2022-12-24T06:20:27;1.63;;;1.50;;
17650;SDS011;26663;59.302;18.082;2022-12-24T06:23:33;1.53;;;1.43;;
17650;SDS011;26663;59.302;18.082;2022-12-24T06:26:40;1.40;;;1.30;;
17650;SDS011;26663;59.302;18.082;2022-12-24T06:29:46;1.40;;;1.40;;
17650;SDS011;26663;59.302;18.082;2022-12-24T06:32:51;1.30;;;1.30;;
17650;SDS011;26663;59.302;18.082;2022-12-24T06:35:56;3.40;;;1.33;;
17650;SDS011;26663;59.302;18.082;2022-12-24T06:39:03;1.27;;;1.27;;
17650;SDS011;26663;59.302;18.082;2022-12-24T06:42:10;1.33;;;1.33;;
17650;SDS011;26663;59.302;18.082;2022-12-24T06:45:15;1.63;;;1.63;;
17650;SDS011;26663;59.302;18.082;2022-12-24T06:48:20;1.70;;;1.60;;
17650;SDS011;26663;59.302;18.082;2022-12-24T06:51:26;1.47;;;1.47;;
17650;SDS011;26663;59.302;18.082;2022-12-24T06:54:31;1.40;;;1.40;;
17650;SDS011;26663;59.302;18.082;2022-12-24T06:57:37;3.33;;;1.33;;
17650;SDS011;26663;59.302;18.082;2022-12-24T07:00:42;1.50;;;1.50;;
17650;SDS011;26663;59.302;18.082;2022-12-24T07:03:48;1.50;;;1.40;;
17650;SDS011;26663;59.302;18.082;2022-12-24T07:06:53;2.03;;;1.60;;
17650;SDS011;26663;59.302;18.082;2022-12-24T07:09:58;3.10;;;1.50;;
17650;SDS011;26663;59.302;18.082;2022-12-24T07:13:05;1.40;;;1.40;;
17650;SDS011;26663;59.302;18.082;2022-12-24T07:16:10;1.80;;;1.70;;
17650;SDS011;26663;59.302;18.082;2022-12-24T07:19:16;1.50;;;1.50;;
17650;SDS011;26663;59.302;18.082;2022-12-24T07:22:21;1.97;;;1.63;;
17650;SDS011;26663;59.302;18.082;2022-12-24T07:25:26;1.40;;;1.30;;
17650;SDS011;26663;59.302;18.082;2022-12-24T07:28:33;1.93;;;1.70;;
17650;SDS011;26663;59.302;18.082;2022-12-24T07:31:38;2.00;;;1.50;;
17650;SDS011;26663;59.302;18.082;2022-12-24T07:34:43;1.70;;;1.67;;
17650;SDS011;26663;59.302;18.082;2022-12-24T07:37:49;1.70;;;1.70;;
17650;SDS011;26663;59.302;18.082;2022-12-24T07:40:54;1.60;;;1.60;;
17650;SDS011;26663;59.302;18.082;2022-12-24T07:44:01;1.90;;;1.80;;
17650;SDS011;26663;59.302;18.082;2022-12-24T07:47:07;2.20;;;1.83;;
17650;SDS011;26663;59.302;18.082;2022-12-24T07:50:12;1.93;;;1.87;;
17650;SDS011;26663;59.302;18.082;2022-12-24T07:53:18;3.63;;;1.93;;
17650;SDS011;26663;59.302;18.082;2022-12-24T07:56:24;1.93;;;1.83;;
17650;SDS011;26663;59.302;18.082;2022-12-24T07:59:31;2.40;;;2.20;;
17650;SDS011;26663;59.302;18.082;2022-12-24T08:02:36;2.47;;;2.30;;
17650;SDS011;26663;59.302;18.082;2022-12-24T08:05:42;2.17;;;2.03;;
17650;SDS011;26663;59.302;18.082;2022-12-24T08:08:47;2.20;;;2.10;;
17650;SDS011;26663;59.302;18.082;2022-12-24T08:11:53;3.37;;;2.10;;
17650;SDS011;26663;59.302;18.082;2022-12-24T08:15:00;2.53;;;2.37;;
17650;SDS011;26663;59.302;18.082;2022-12-24T08:18:06;2.27;;;2.17;;
17650;SDS011;26663;59.302;18.082;2022-12-24T08:21:12;2.33;;;2.13;;
17650;SDS011;26663;59.302;18.082;2022-12-24T08:24:18;2.60;;;2.40;;
17650;SDS011;26663;59.302;18.082;2022-12-24T08:27:24;2.00;;;2.00;;
17650;SDS011;26663;59.302;18.082;2022-12-24T08:30:30;2.40;;;2.30;;
17650;SDS011;26663;59.302;18.082;2022-12-24T08:33:35;2.53;;;2.33;;
17650;SDS011;26663;59.302;18.082;2022-12-24T08:36:42;3.00;;;2.50;;
17650;SDS011;26663;59.302;18.082;2022-12-24T08:39:47;2.33;;;2.10;;
17650;SDS011;26663;59.302;18.082;2022-12-24T08:42:52;2.37;;;2.27;;
17650;SDS011;26663;59.302;18.082;2022-12-24T08:46:02;2.90;;;2.70;;
17650;SDS011;26663;59.302;18.082;2022-12-24T08:49:09;4.40;;;3.30;;
17650;SDS011;26663;59.302;18.082;2022-12-24T08:52:14;3.40;;;3.20;;
17650;SDS011;26663;59.302;18.082;2022-12-24T08:55:19;3.30;;;3.10;;
17650;SDS011;26663;59.302;18.082;2022-12-24T08:58:24;3.27;;;2.97;;
17650;SDS011;26663;59.302;18.082;2022-12-24T09:01:31;3.20;;;3.00;;
17650;SDS011;26663;59.302;18.082;2022-12-24T09:04:39;5.63;;;3.00;;
17650;SDS011;26663;59.302;18.082;2022-12-24T09:07:44;3.10;;;2.90;;
17650;SDS011;26663;59.302;18.082;2022-12-24T09:10:50;5.37;;;3.10;;
17650;SDS011;26663;59.302;18.082;2022-12-24T09:13:55;3.30;;;3.00;;
17650;SDS011;26663;59.302;18.082;2022-12-24T09:17:02;4.40;;;3.50;;
17650;SDS011;26663;59.302;18.082;2022-12-24T09:20:09;3.67;;;3.37;;
17650;SDS011;26663;59.302;18.082;2022-12-24T09:23:14;3.37;;;3.07;;
17650;SDS011;26663;59.302;18.082;2022-12-24T09:26:20;5.03;;;3.10;;
17650;SDS011;26663;59.302;18.082;2022-12-24T09:29:27;3.27;;;3.17;;
17650;SDS011;26663;59.302;18.082;2022-12-24T09:32:34;3.00;;;2.80;;
17650;SDS011;26663;59.302;18.082;2022-12-24T09:35:40;2.97;;;2.87;;
17650;SDS011;26663;59.302;18.082;2022-12-24T09:38:45;3.30;;;3.10;;
17650;SDS011;26663;59.302;18.082;2022-12-24T09:41:52;4.50;;;3.00;;
17650;SDS011;26663;59.302;18.082;2022-12-24T09:45:04;5.37;;;3.27;;
17650;SDS011;26663;59.302;18.082;2022-12-24T09:48:15;4.07;;;3.20;;
17650;SDS011;26663;59.302;18.082;2022-12-24T09:51:23;3.07;;;2.97;;
17650;SDS011;26663;59.302;18.082;2022-12-24T09:54:32;4.87;;;2.83;;
17650;SDS011;26663;59.302;18.082;2022-12-24T09:57:39;3.00;;;2.77;;
17650;SDS011;26663;59.302;18.082;2022-12-24T10:00:45;2.70;;;2.60;;
17650;SDS011;26663;59.302;18.082;2022-12-24T10:03:53;2.77;;;2.50;;
17650;SDS011;26663;59.302;18.082;2022-12-24T10:07:00;4.87;;;2.90;;
17650;SDS011;26663;59.302;18.082;2022-12-24T10:10:13;2.73;;;2.37;;
17650;SDS011;26663;59.302;18.082;2022-12-24T10:13:27;2.60;;;2.50;;
17650;SDS011;26663;59.302;18.082;2022-12-24T10:16:41;7.50;;;2.70;;
17650;SDS011;26663;59.302;18.082;2022-12-24T10:19:54;2.77;;;2.40;;
17650;SDS011;26663;59.302;18.082;2022-12-24T10:23:06;3.17;;;2.90;;
17650;SDS011;26663;59.302;18.082;2022-12-24T10:26:21;2.10;;;2.03;;
17650;SDS011;26663;59.302;18.082;2022-12-24T10:29:28;2.00;;;2.00;;
17650;SDS011;26663;59.302;18.082;2022-12-24T10:32:35;2.03;;;1.93;;
17650;SDS011;26663;59.302;18.082;2022-12-24T10:35:45;2.00;;;1.90;;
17650;SDS011;26663;59.302;18.082;2022-12-24T10:38:53;2.50;;;2.40;;
17650;SDS011;26663;59.302;18.082;2022-12-24T10:41:58;2.57;;;1.60;;
17650;SDS011;26663;59.302;18.082;2022-12-24T10:45:06;1.93;;;1.90;;
17650;SDS011;26663;59.302;18.082;2022-12-24T10:48:16;2.00;;;1.90;;
17650;SDS011;26663;59.302;18.082;2022-12-24T10:51:29;2.20;;;2.10;;
17650;SDS011;26663;59.302;18.082;2022-12-24T10:58:12;1.63;;;1.53;;
17650;SDS011;26663;59.302;18.082;2022-12-24T11:01:19;1.80;;;1.70;;
17650;SDS011;26663;59.302;18.082;2022-12-24T11:04:45;6.03;;;1.90;;
17650;SDS011;26663;59.302;18.082;2022-12-24T11:07:59;3.10;;;2.03;;
17650;SDS011;26663;59.302;18.082;2022-12-24T11:11:05;1.70;;;1.60;;
17650;SDS011;26663;59.302;18.082;2022-12-24T11:14:13;1.70;;;1.60;;
17650;SDS011;26663;59.302;18.082;2022-12-24T11:17:21;1.90;;;1.80;;
17650;SDS011;26663;59.302;18.082;2022-12-24T11:20:27;1.60;;;1.60;;
17650;SDS011;26663;59.302;18.082;2022-12-24T11:23:34;1.50;;;1.50;;
17650;SDS011;26663;59.302;18.082;2022-12-24T11:26:41;1.87;;;1.77;;
17650;SDS011;26663;59.302;18.082;2022-12-24T11:29:47;2.13;;;1.90;;
17650;SDS011;26663;59.302;18.082;2022-12-24T11:36:22;3.30;;;1.93;;
17650;SDS011;26663;59.302;18.082;2022-12-24T11:39:30;3.17;;;2.10;;
17650;SDS011;26663;59.302;18.082;2022-12-24T11:42:43;2.20;;;2.10;;
17650;SDS011;26663;59.302;18.082;2022-12-24T11:45:49;2.13;;;2.03;;
17650;SDS011;26663;59.302;18.082;2022-12-24T11:49:03;2.47;;;2.27;;
17650;SDS011;26663;59.302;18.082;2022-12-24T11:55:38;2.93;;;2.77;;
17650;SDS011;26663;59.302;18.082;2022-12-24T11:58:46;3.13;;;2.20;;
17650;SDS011;26663;59.302;18.082;2022-12-24T12:01:54;3.23;;;2.47;;
17650;SDS011;26663;59.302;18.082;2022-12-24T12:05:02;3.37;;;2.17;;
17650;SDS011;26663;59.302;18.082;2022-12-24T12:08:13;2.40;;;2.17;;
17650;SDS011;26663;59.302;18.082;2022-12-24T12:11:22;4.13;;;2.60;;
17650;SDS011;26663;59.302;18.082;2022-12-24T12:14:30;2.23;;;2.07;;
17650;SDS011;26663;59.302;18.082;2022-12-24T12:17:39;2.30;;;2.00;;
17650;SDS011;26663;59.302;18.082;2022-12-24T12:20:49;2.43;;;2.17;;
17650;SDS011;26663;59.302;18.082;2022-12-24T12:23:57;2.40;;;2.20;;
17650;SDS011;26663;59.302;18.082;2022-12-24T12:27:12;2.83;;;2.53;;
17650;SDS011;26663;59.302;18.082;2022-12-24T12:30:23;2.77;;;2.33;;
17650;SDS011;26663;59.302;18.082;2022-12-24T12:33:30;2.57;;;2.43;;
17650;SDS011;26663;59.302;18.082;2022-12-24T12:36:42;2.30;;;2.20;;
17650;SDS011;26663;59.302;18.082;2022-12-24T12:39:50;2.77;;;2.57;;
17650;SDS011;26663;59.302;18.082;2022-12-24T12:43:07;2.50;;;2.50;;
17650;SDS011;26663;59.302;18.082;2022-12-24T12:46:18;2.67;;;2.50;;
17650;SDS011;26663;59.302;18.082;2022-12-24T12:49:30;2.67;;;2.40;;
17650;SDS011;26663;59.302;18.082;2022-12-24T12:52:44;2.80;;;2.70;;
17650;SDS011;26663;59.302;18.082;2022-12-24T12:56:07;2.70;;;2.60;;
17650;SDS011;26663;59.302;18.082;2022-12-24T12:59:23;2.70;;;2.63;;
17650;SDS011;26663;59.302;18.082;2022-12-24T13:02:44;2.90;;;2.70;;
17650;SDS011;26663;59.302;18.082;2022-12-24T13:09:45;3.40;;;2.83;;
17650;SDS011;26663;59.302;18.082;2022-12-24T13:17:15;4.67;;;3.10;;
17650;SDS011;26663;59.302;18.082;2022-12-24T13:20:45;7.57;;;4.43;;
17650;SDS011;26663;59.302;18.082;2022-12-24T13:24:03;3.80;;;3.50;;
17650;SDS011;26663;59.302;18.082;2022-12-24T13:27:13;3.63;;;3.37;;
17650;SDS011;26663;59.302;18.082;2022-12-24T13:30:33;3.73;;;3.47;;
17650;SDS011;26663;59.302;18.082;2022-12-24T13:33:47;4.93;;;3.53;;
17650;SDS011;26663;59.302;18.082;2022-12-24T13:37:01;4.23;;;3.20;;
17650;SDS011;26663;59.302;18.082;2022-12-24T13:40:15;7.20;;;3.50;;
17650;SDS011;26663;59.302;18.082;2022-12-24T13:43:28;7.30;;;3.73;;
17650;SDS011;26663;59.302;18.082;2022-12-24T13:47:20;4.93;;;3.80;;
17650;SDS011;26663;59.302;18.082;2022-12-24T13:50:35;7.47;;;4.07;;
17650;SDS011;26663;59.302;18.082;2022-12-24T13:53:45;6.73;;;4.37;;
17650;SDS011;26663;59.302;18.082;2022-12-24T13:56:51;9.20;;;5.17;;
17650;SDS011;26663;59.302;18.082;2022-12-24T13:59:58;8.33;;;5.13;;
17650;SDS011;26663;59.302;18.082;2022-12-24T14:03:16;7.67;;;5.17;;
17650;SDS011;26663;59.302;18.082;2022-12-24T14:06:28;8.90;;;5.03;;
17650;SDS011;26663;59.302;18.082;2022-12-24T14:09:35;9.90;;;5.00;;
17650;SDS011;26663;59.302;18.082;2022-12-24T14:12:45;5.37;;;4.87;;
17650;SDS011;26663;59.302;18.082;2022-12-24T14:16:00;5.93;;;4.87;;
17650;SDS011;26663;59.302;18.082;2022-12-24T14:19:09;8.40;;;4.73;;
17650;SDS011;26663;59.302;18.082;2022-12-24T14:22:22;5.07;;;4.20;;
17650;SDS011;26663;59.302;18.082;2022-12-24T14:25:30;6.20;;;4.90;;
17650;SDS011;26663;59.302;18.082;2022-12-24T14:28:38;6.63;;;4.93;;
17650;SDS011;26663;59.302;18.082;2022-12-24T14:31:49;12.20;;;5.87;;
17650;SDS011;26663;59.302;18.082;2022-12-24T14:35:03;7.33;;;5.50;;
17650;SDS011;26663;59.302;18.082;2022-12-24T14:38:12;9.07;;;5.10;;
17650;SDS011;26663;59.302;18.082;2022-12-24T14:41:26;5.70;;;4.43;;
17650;SDS011;26663;59.302;18.082;2022-12-24T14:44:39;5.80;;;4.43;;
17650;SDS011;26663;59.302;18.082;2022-12-24T14:47:48;5.67;;;4.00;;
17650;SDS011;26663;59.302;18.082;2022-12-24T14:51:02;4.23;;;3.93;;
17650;SDS011;26663;59.302;18.082;2022-12-24T14:54:25;4.40;;;4.00;;
17650;SDS011;26663;59.302;18.082;2022-12-24T14:57:41;5.73;;;3.80;;
17650;SDS011;26663;59.302;18.082;2022-12-24T15:00:46;5.73;;;4.00;;
17650;SDS011;26663;59.302;18.082;2022-12-24T15:03:59;4.20;;;3.80;;
17650;SDS011;26663;59.302;18.082;2022-12-24T15:07:05;6.00;;;4.13;;
17650;SDS011;26663;59.302;18.082;2022-12-24T15:10:26;6.10;;;4.60;;
17650;SDS011;26663;59.302;18.082;2022-12-24T15:13:34;4.77;;;4.27;;
17650;SDS011;26663;59.302;18.082;2022-12-24T15:16:41;4.33;;;3.97;;
17650;SDS011;26663;59.302;18.082;2022-12-24T15:19:58;6.37;;;4.27;;
17650;SDS011;26663;59.302;18.082;2022-12-24T15:23:15;5.57;;;4.47;;
17650;SDS011;26663;59.302;18.082;2022-12-24T15:26:24;4.13;;;3.83;;
17650;SDS011;26663;59.302;18.082;2022-12-24T15:29:31;4.87;;;4.43;;
17650;SDS011;26663;59.302;18.082;2022-12-24T15:32:41;4.13;;;3.67;;
17650;SDS011;26663;59.302;18.082;2022-12-24T15:35:48;4.40;;;4.00;;
17650;SDS011;26663;59.302;18.082;2022-12-24T15:38:56;5.10;;;4.70;;
17650;SDS011;26663;59.302;18.082;2022-12-24T15:42:04;7.53;;;4.60;;
17650;SDS011;26663;59.302;18.082;2022-12-24T15:45:21;6.40;;;4.83;;
17650;SDS011;26663;59.302;18.082;2022-12-24T15:48:30;8.57;;;4.57;;
17650;SDS011;26663;59.302;18.082;2022-12-24T15:51:37;5.87;;;3.90;;
17650;SDS011;26663;59.302;18.082;2022-12-24T15:54:43;7.47;;;4.60;;
17650;SDS011;26663;59.302;18.082;2022-12-24T15:57:58;7.07;;;4.30;;
17650;SDS011;26663;59.302;18.082;2022-12-24T16:01:17;4.13;;;3.73;;
17650;SDS011;26663;59.302;18.082;2022-12-24T16:04:31;4.40;;;4.00;;
17650;SDS011;26663;59.302;18.082;2022-12-24T16:07:36;4.73;;;4.33;;
17650;SDS011;26663;59.302;18.082;2022-12-24T16:11:12;4.53;;;4.13;;
17650;SDS011;26663;59.302;18.082;2022-12-24T16:14:22;5.90;;;4.83;;
17650;SDS011;26663;59.302;18.082;2022-12-24T16:17:28;7.93;;;5.33;;
17650;SDS011;26663;59.302;18.082;2022-12-24T16:20:35;6.73;;;5.07;;
17650;SDS011;26663;59.302;18.082;2022-12-24T16:23:44;8.53;;;5.50;;
17650;SDS011;26663;59.302;18.082;2022-12-24T16:26:50;7.33;;;5.23;;
17650;SDS011;26663;59.302;18.082;2022-12-24T16:29:57;7.10;;;5.67;;
17650;SDS011;26663;59.302;18.082;2022-12-24T16:33:03;6.77;;;5.90;;
17650;SDS011;26663;59.302;18.082;2022-12-24T16:36:10;8.43;;;6.33;;
17650;SDS011;26663;59.302;18.082;2022-12-24T16:39:16;11.77;;;7.50;;
17650;SDS011;26663;59.302;18.082;2022-12-24T16:42:30;10.50;;;6.37;;
17650;SDS011;26663;59.302;18.082;2022-12-24T16:45:54;12.93;;;7.43;;
17650;SDS011;26663;59.302;18.082;2022-12-24T16:49:04;14.70;;;7.13;;
17650;SDS011;26663;59.302;18.082;2022-12-24T16:52:14;11.30;;;7.17;;
17650;SDS011;26663;59.302;18.082;2022-12-24T16:55:20;14.03;;;7.47;;
17650;SDS011;26663;59.302;18.082;2022-12-24T16:58:26;11.67;;;8.67;;
17650;SDS011;26663;59.302;18.082;2022-12-24T17:01:32;12.53;;;8.60;;
17650;SDS011;26663;59.302;18.082;2022-12-24T17:04:38;16.20;;;8.93;;
17650;SDS011;26663;59.302;18.082;2022-12-24T17:07:43;14.40;;;8.10;;
17650;SDS011;26663;59.302;18.082;2022-12-24T17:10:49;17.73;;;8.90;;
17650;SDS011;26663;59.302;18.082;2022-12-24T17:13:54;16.70;;;8.13;;
17650;SDS011;26663;59.302;18.082;2022-12-24T17:17:01;10.47;;;6.77;;
17650;SDS011;26663;59.302;18.082;2022-12-24T17:20:09;10.63;;;7.40;;
17650;SDS011;26663;59.302;18.082;2022-12-24T17:23:20;11.13;;;7.10;;
17650;SDS011;26663;59.302;18.082;2022-12-24T17:26:25;9.43;;;6.67;;
17650;SDS011;26663;59.302;18.082;2022-12-24T17:29:31;7.70;;;6.07;;
17650;SDS011;26663;59.302;18.082;2022-12-24T17:32:37;7.40;;;5.60;;
17650;SDS011;26663;59.302;18.082;2022-12-24T17:35:43;8.70;;;5.97;;
17650;SDS011;26663;59.302;18.082;2022-12-24T17:38:50;9.50;;;6.67;;
17650;SDS011;26663;59.302;18.082;2022-12-24T17:41:55;8.23;;;6.03;;
17650;SDS011;26663;59.302;18.082;2022-12-24T17:45:00;13.60;;;6.83;;
17650;SDS011;26663;59.302;18.082;2022-12-24T17:48:08;6.27;;;5.77;;
17650;SDS011;26663;59.302;18.082;2022-12-24T17:51:14;9.23;;;6.97;;
17650;SDS011;26663;59.302;18.082;2022-12-24T17:54:22;11.23;;;6.60;;
17650;SDS011;26663;59.302;18.082;2022-12-24T17:57:27;10.23;;;6.90;;
17650;SDS011;26663;59.302;18.082;2022-12-24T18:00:33;13.13;;;7.23;;
17650;SDS011;26663;59.302;18.082;2022-12-24T18:03:39;9.60;;;6.60;;
17650;SDS011;26663;59.302;18.082;2022-12-24T18:06:45;10.27;;;7.00;;
17650;SDS011;26663;59.302;18.082;2022-12-24T18:09:51;8.33;;;6.00;;
17650;SDS011;26663;59.302;18.082;2022-12-24T18:12:56;10.77;;;6.67;;
17650;SDS011;26663;59.302;18.082;2022-12-24T18:16:01;9.07;;;5.77;;
17650;SDS011;26663;59.302;18.082;2022-12-24T18:19:11;11.00;;;6.63;;
17650;SDS011;26663;59.302;18.082;2022-12-24T18:22:17;10.97;;;5.83;;
17650;SDS011;26663;59.302;18.082;2022-12-24T18:25:23;10.90;;;5.67;;
17650;SDS011;26663;59.302;18.082;2022-12-24T18:28:30;8.57;;;6.13;;
17650;SDS011;26663;59.302;18.082;2022-12-24T18:31:35;7.70;;;5.47;;
17650;SDS011;26663;59.302;18.082;2022-12-24T18:34:42;9.80;;;6.17;;
17650;SDS011;26663;59.302;18.082;2022-12-24T18:37:48;10.23;;;5.63;;
17650;SDS011;26663;59.302;18.082;2022-12-24T18:40:53;7.97;;;5.40;;
17650;SDS011;26663;59.302;18.082;2022-12-24T18:43:59;6.93;;;5.20;;
17650;SDS011;26663;59.302;18.082;2022-12-24T18:47:04;8.10;;;5.07;;
17650;SDS011;26663;59.302;18.082;2022-12-24T18:50:11;5.87;;;4.87;;
17650;SDS011;26663;59.302;18.082;2022-12-24T18:53:16;5.90;;;5.20;;
17650;SDS011;26663;59.302;18.082;2022-12-24T18:56:22;9.40;;;5.30;;